Time;durP1;ratioP1;P1;durP2;ratioP2;P2;SDS_P1;SDS_P2;PMS_P1;PMS_P2;Temp;Humidity;BMP_temperature;BMP_pressure;BME280_temperature;BME280_humidity;BME280_pressure;Samples;Min_cycle;Max_cycle;Signal;HPM_P1;HPM_P2
2021/12/15 00:02:23;;;;;;;0.00;0.00;;;9.30;99.90;;;;;;5016347;28;20161;-68
2021/12/15 00:04:51;;;;;;;0.00;0.00;;;9.30;99.90;;;;;;5007780;28;20054;-67
2021/12/15 00:07:19;;;;;;;0.15;0.15;;;9.30;99.90;;;;;;5014755;28;20056;-67
2021/12/15 00:09:45;;;;;;;0.08;0.08;;;9.30;99.90;;;;;;4997415;28;20124;-68
2021/12/15 00:12:13;;;;;;;0.38;0.38;;;9.30;99.90;;;;;;4999190;28;20405;-67
2021/12/15 00:14:41;;;;;;;0.10;0.10;;;9.60;99.90;;;;;;4999844;28;20547;-67
2021/12/15 00:17:06;;;;;;;0.03;0.03;;;9.30;99.90;;;;;;4997692;28;20049;-68
2021/12/15 00:19:33;;;;;;;0.03;0.03;;;9.30;99.90;;;;;;5013575;28;20513;-68
2021/12/15 00:21:58;;;;;;;1.45;0.52;;;9.20;99.90;;;;;;4998509;28;20069;-67
2021/12/15 00:24:25;;;;;;;0.10;0.10;;;9.30;99.90;;;;;;4998979;28;20725;-67
2021/12/15 00:26:51;;;;;;;0.30;0.30;;;9.30;99.90;;;;;;4998327;28;20249;-67
2021/12/15 00:29:17;;;;;;;0.05;0.05;;;9.40;99.90;;;;;;4998931;28;20060;-67
2021/12/15 00:31:45;;;;;;;0.00;0.00;;;9.30;99.90;;;;;;4997824;28;20136;-68
2021/12/15 00:34:12;;;;;;;0.00;0.00;;;9.30;99.90;;;;;;4996965;28;20413;-67
2021/12/15 00:36:39;;;;;;;0.10;0.10;;;9.40;99.90;;;;;;4996610;28;20064;-67
2021/12/15 00:39:06;;;;;;;0.00;0.00;;;9.30;99.90;;;;;;4997619;28;20049;-68
2021/12/15 00:41:33;;;;;;;2.85;1.13;;;9.70;99.90;;;;;;4999367;28;20054;-67
2021/12/15 00:43:58;;;;;;;3.65;1.00;;;9.60;99.90;;;;;;4998850;28;20444;-67
2021/12/15 00:46:25;;;;;;;0.00;0.00;;;9.40;99.90;;;;;;4996916;28;20061;-66
2021/12/15 00:48:50;;;;;;;0.45;0.35;;;9.80;99.90;;;;;;4996405;28;20771;-66
2021/12/15 00:51:16;;;;;;;0.00;0.00;;;9.40;99.90;;;;;;4998935;28;20089;-66
2021/12/15 00:53:42;;;;;;;0.00;0.00;;;9.70;99.90;;;;;;4997214;28;20132;-67
2021/12/15 00:56:09;;;;;;;0.00;0.00;;;9.40;99.90;;;;;;4998732;28;20108;-66
2021/12/15 00:58:35;;;;;;;0.30;0.13;;;9.40;99.90;;;;;;4998854;28;20238;-67
2021/12/15 01:01:02;;;;;;;0.73;0.73;;;9.80;99.90;;;;;;5017130;28;20057;-66
2021/12/15 01:03:31;;;;;;;0.50;0.50;;;9.40;99.90;;;;;;5008508;28;20064;-66
2021/12/15 01:06:05;;;;;;;1.35;0.35;;;9.60;99.90;;;;;;5010560;28;20579;-66
2021/12/15 01:08:32;;;;;;;0.63;0.40;;;9.60;99.90;;;;;;5016462;28;20041;-66
2021/12/15 01:11:14;;;;;;;0.32;0.32;;;9.80;99.90;;;;;;5016497;28;20672;-66
2021/12/15 01:19:47;;;;;;;0.08;0.08;;;9.50;99.90;;;;;;5016497;28;20107;-66
2021/12/15 01:22:16;;;;;;;0.10;0.10;;;9.50;99.90;;;;;;5016782;28;20054;-66
2021/12/15 01:24:43;;;;;;;0.25;0.17;;;9.50;99.90;;;;;;5017978;28;20048;-67
2021/12/15 01:27:09;;;;;;;0.20;0.20;;;9.70;99.90;;;;;;5016900;28;20049;-66
2021/12/15 01:29:35;;;;;;;0.57;0.40;;;9.50;99.90;;;;;;5016234;28;20049;-67
2021/12/15 01:32:00;;;;;;;0.00;0.00;;;9.50;99.90;;;;;;5016618;28;20045;-66
2021/12/15 01:34:26;;;;;;;0.10;0.10;;;9.50;99.90;;;;;;5015888;28;20068;-66
2021/12/15 01:36:52;;;;;;;0.75;0.40;;;9.50;99.90;;;;;;5015797;28;20049;-66
2021/12/15 01:39:18;;;;;;;3.30;1.98;;;10.60;99.90;;;;;;5017840;28;20045;-66
2021/12/15 01:41:44;;;;;;;0.13;0.13;;;9.60;99.90;;;;;;5016917;28;20064;-67
2021/12/15 01:46:56;;;;;;;0.52;0.45;;;9.50;99.90;;;;;;5017830;28;20416;-66
2021/12/15 01:49:31;;;;;;;0.65;0.65;;;10.10;99.90;;;;;;5015012;28;20085;-66
2021/12/15 01:51:59;;;;;;;0.60;0.60;;;9.50;99.90;;;;;;5015512;28;20705;-66
2021/12/15 01:54:27;;;;;;;0.20;0.20;;;9.60;99.90;;;;;;5016523;28;20079;-66
2021/12/15 01:56:53;;;;;;;0.00;0.00;;;9.50;99.90;;;;;;5016552;28;20049;-67
2021/12/15 01:59:21;;;;;;;0.40;0.40;;;9.50;99.90;;;;;;5015271;28;20056;-67
2021/12/15 02:01:46;;;;;;;0.30;0.30;;;9.80;99.90;;;;;;5016352;28;20076;-66
2021/12/15 02:04:15;;;;;;;0.00;0.00;;;9.50;99.90;;;;;;5007996;28;20049;-67
2021/12/15 02:06:43;;;;;;;0.00;0.00;;;9.50;99.90;;;;;;4997805;28;20045;-67
2021/12/15 02:09:10;;;;;;;0.22;0.22;;;9.50;99.90;;;;;;4997045;28;20054;-67
2021/12/15 02:11:36;;;;;;;0.10;0.10;;;9.80;99.90;;;;;;4996606;28;20046;-67
2021/12/15 02:14:02;;;;;;;0.15;0.13;;;9.90;99.90;;;;;;4998078;28;20103;-66
2021/12/15 02:16:29;;;;;;;0.17;0.17;;;9.50;99.90;;;;;;4997344;28;20054;-66
2021/12/15 02:18:54;;;;;;;0.00;0.00;;;9.60;99.90;;;;;;4997097;28;20258;-66
2021/12/15 02:21:23;;;;;;;0.00;0.00;;;9.60;99.90;;;;;;4996975;28;20585;-66
2021/12/15 02:23:54;;;;;;;0.10;0.10;;;9.70;99.90;;;;;;4996150;28;20061;-66
2021/12/15 02:26:26;;;;;;;0.77;0.43;;;10.00;99.90;;;;;;4995468;28;20061;-66
2021/12/15 02:28:56;;;;;;;0.65;0.65;;;9.60;99.90;;;;;;4980114;28;20132;-66
2021/12/15 02:34:33;;;;;;;0.00;0.00;;;9.60;99.90;;;;;;4995427;28;20129;-66
2021/12/15 02:37:17;;;;;;;0.47;0.30;;;9.60;99.90;;;;;;4995397;28;20038;-66
2021/12/15 02:39:49;;;;;;;0.43;0.43;;;9.60;99.90;;;;;;4997553;28;20054;-67
2021/12/15 02:42:16;;;;;;;0.00;0.00;;;9.60;99.90;;;;;;4998874;28;20038;-66
2021/12/15 02:44:44;;;;;;;0.00;0.00;;;10.30;99.90;;;;;;4999471;28;20136;-67
2021/12/15 02:47:17;;;;;;;0.10;0.10;;;9.90;99.90;;;;;;4999081;28;20053;-67
2021/12/15 02:49:46;;;;;;;0.40;0.38;;;9.60;99.90;;;;;;5001204;28;20042;-67
2021/12/15 02:52:12;;;;;;;0.20;0.20;;;9.60;99.90;;;;;;4999675;28;20065;-66
2021/12/15 02:54:38;;;;;;;0.00;0.00;;;9.70;99.90;;;;;;4999388;28;20050;-66
2021/12/15 02:57:10;;;;;;;0.00;0.00;;;9.60;99.90;;;;;;4999212;28;20052;-67
2021/12/15 02:59:57;;;;;;;0.03;0.03;;;9.80;99.90;;;;;;4999068;28;20053;-67
2021/12/15 03:05:20;;;;;;;0.10;0.10;;;10.10;99.90;;;;;;5008243;28;20054;-67
2021/12/15 03:08:09;;;;;;;1.00;0.90;;;9.60;99.90;;;;;;4999654;28;20042;-67
2021/12/15 03:16:08;;;;;;;0.20;0.20;;;9.60;99.90;;;;;;4999567;28;20050;-67
2021/12/15 03:18:34;;;;;;;0.00;0.00;;;9.60;99.90;;;;;;4998435;28;20050;-67
2021/12/15 03:21:04;;;;;;;0.60;0.20;;;9.70;99.90;;;;;;4998478;28;20080;-66
2021/12/15 03:23:44;;;;;;;0.77;0.30;;;9.70;99.90;;;;;;4999990;28;20042;-66
2021/12/15 03:26:11;;;;;;;0.00;0.00;;;9.70;99.90;;;;;;4998791;28;20040;-67
2021/12/15 03:36:40;;;;;;;0.65;0.63;;;9.80;99.90;;;;;;4999845;28;20476;-67
2021/12/15 03:39:10;;;;;;;0.35;0.15;;;9.10;99.90;;;;;;4998270;28;20046;-67
2021/12/15 03:41:35;;;;;;;0.98;0.57;;;9.60;99.90;;;;;;4981853;28;20888;-66
2021/12/15 03:44:03;;;;;;;0.28;0.28;;;9.70;99.90;;;;;;4998828;28;20128;-67
2021/12/15 03:46:29;;;;;;;1.90;1.08;;;9.60;99.90;;;;;;4998929;28;20046;-66
2021/12/15 03:48:55;;;;;;;0.10;0.10;;;10.10;99.90;;;;;;4997996;28;20659;-66
2021/12/15 03:51:21;;;;;;;0.57;0.57;;;10.00;99.90;;;;;;4997438;28;20046;-66
2021/12/15 03:53:47;;;;;;;0.25;0.20;;;10.00;99.90;;;;;;4998654;28;20053;-66
2021/12/15 03:56:14;;;;;;;0.35;0.28;;;9.70;99.90;;;;;;4999692;28;20061;-69
2021/12/15 03:58:40;;;;;;;0.17;0.17;;;9.70;99.90;;;;;;4998861;28;20471;-67
2021/12/15 04:01:11;;;;;;;0.00;0.00;;;9.70;99.90;;;;;;4998177;28;20128;-67
2021/12/15 04:03:41;;;;;;;0.25;0.25;;;9.70;99.90;;;;;;5003940;28;20053;-66
2021/12/15 04:06:11;;;;;;;1.65;0.32;;;9.60;99.90;;;;;;5013545;28;20057;-67
2021/12/15 04:08:37;;;;;;;3.83;1.58;;;9.80;99.90;;;;;;4998379;28;20042;-66
2021/12/15 04:11:06;;;;;;;0.32;0.28;;;9.60;99.90;;;;;;4981957;28;20692;-67
2021/12/15 04:13:33;;;;;;;0.25;0.25;;;10.30;99.90;;;;;;4999718;28;20042;-66
2021/12/15 04:16:05;;;;;;;1.30;0.50;;;9.70;99.90;;;;;;4997588;28;20484;-66
2021/12/15 04:18:32;;;;;;;0.47;0.43;;;9.60;99.90;;;;;;4981519;28;20100;-66
2021/12/15 04:20:58;;;;;;;0.15;0.15;;;9.60;99.90;;;;;;4997712;28;20065;-66
2021/12/15 04:23:24;;;;;;;0.43;0.20;;;10.10;99.90;;;;;;4997158;28;20034;-66
2021/12/15 04:25:54;;;;;;;0.63;0.28;;;9.60;99.90;;;;;;4997532;28;20424;-66
2021/12/15 04:28:31;;;;;;;0.40;0.30;;;9.60;99.90;;;;;;4981211;28;20050;-66
2021/12/15 04:31:03;;;;;;;0.10;0.10;;;9.60;99.90;;;;;;4996683;28;20081;-67
2021/12/15 04:33:35;;;;;;;0.10;0.10;;;9.60;99.90;;;;;;4996949;28;20042;-66
2021/12/15 04:36:04;;;;;;;0.00;0.00;;;9.60;99.90;;;;;;4998219;28;20769;-66
2021/12/15 04:38:31;;;;;;;0.28;0.28;;;9.60;99.90;;;;;;4998043;28;20124;-66
2021/12/15 04:41:03;;;;;;;0.45;0.45;;;9.60;99.90;;;;;;4997357;28;20042;-66
2021/12/15 04:43:33;;;;;;;1.17;0.47;;;9.90;99.90;;;;;;4997767;28;20056;-66
2021/12/15 04:45:59;;;;;;;0.52;0.52;;;9.60;99.90;;;;;;4997219;28;20046;-66
2021/12/15 04:48:25;;;;;;;0.25;0.25;;;9.60;99.90;;;;;;4980479;28;20045;-66
2021/12/15 04:50:51;;;;;;;0.90;0.75;;;9.60;99.90;;;;;;4997358;28;20046;-66
2021/12/15 04:53:16;;;;;;;0.00;0.00;;;9.60;99.90;;;;;;4998864;28;20531;-66
2021/12/15 04:55:42;;;;;;;0.20;0.20;;;9.90;99.90;;;;;;4997338;28;20385;-67
2021/12/15 04:58:11;;;;;;;0.40;0.30;;;9.70;99.90;;;;;;4997820;28;20050;-67
2021/12/15 05:00:52;;;;;;;0.22;0.22;;;9.60;99.90;;;;;;4997857;28;20057;-67
2021/12/15 05:03:17;;;;;;;0.00;0.00;;;9.60;99.90;;;;;;4999912;28;20811;-66
2021/12/15 05:05:44;;;;;;;0.20;0.20;;;9.60;99.90;;;;;;5013624;28;20058;-67
2021/12/15 05:08:10;;;;;;;2.63;1.42;;;10.20;99.90;;;;;;4997157;28;20041;-66
2021/12/15 05:10:37;;;;;;;0.52;0.52;;;9.60;99.90;;;;;;4996566;28;20054;-67
2021/12/15 05:13:04;;;;;;;0.00;0.00;;;10.00;99.90;;;;;;4996856;28;20050;-67
2021/12/15 05:15:31;;;;;;;0.00;0.00;;;9.60;99.90;;;;;;4999372;28;20053;-66
2021/12/15 05:17:56;;;;;;;1.52;1.42;;;9.60;99.90;;;;;;4979725;28;20052;-66
2021/12/15 05:20:23;;;;;;;0.08;0.08;;;10.00;99.90;;;;;;4996463;28;20326;-66
2021/12/15 05:22:49;;;;;;;0.00;0.00;;;9.60;99.90;;;;;;4996797;28;20057;-66
2021/12/15 05:25:15;;;;;;;0.20;0.20;;;9.70;99.90;;;;;;4996917;28;20103;-66
2021/12/15 05:27:41;;;;;;;1.75;0.43;;;9.70;99.90;;;;;;4981002;28;20069;-67
2021/12/15 05:30:11;;;;;;;2.92;1.00;;;10.00;99.90;;;;;;4997025;28;20042;-66
2021/12/15 05:32:37;;;;;;;6.93;1.48;;;9.60;99.90;;;;;;4996550;28;20451;-67
2021/12/15 05:35:03;;;;;;;0.50;0.50;;;10.00;99.90;;;;;;4996561;28;20050;-68
2021/12/15 05:37:29;;;;;;;0.10;0.10;;;9.60;99.90;;;;;;4979922;28;20081;-68
2021/12/15 05:39:55;;;;;;;0.20;0.20;;;9.70;99.90;;;;;;4998334;28;20121;-66
2021/12/15 05:42:23;;;;;;;0.10;0.10;;;9.60;99.90;;;;;;4997899;28;20505;-66
2021/12/15 05:44:50;;;;;;;1.67;0.88;;;9.90;99.90;;;;;;4998415;28;20096;-66
2021/12/15 05:47:17;;;;;;;0.77;0.52;;;9.50;99.90;;;;;;4995221;28;20494;-66
2021/12/15 05:49:43;;;;;;;0.10;0.10;;;9.60;99.90;;;;;;4997784;28;20073;-67
2021/12/15 05:52:10;;;;;;;0.15;0.15;;;9.60;99.90;;;;;;4996763;28;20058;-67
2021/12/15 05:54:37;;;;;;;0.28;0.28;;;9.60;99.90;;;;;;4996611;28;20050;-66
2021/12/15 05:57:03;;;;;;;2.17;0.95;;;9.60;99.90;;;;;;4997314;28;20129;-67
2021/12/15 05:59:29;;;;;;;1.13;1.02;;;9.60;99.90;;;;;;4998254;28;20045;-66
2021/12/15 06:01:55;;;;;;;0.20;0.20;;;9.60;99.90;;;;;;4995842;28;20497;-66
2021/12/15 06:04:21;;;;;;;0.98;0.35;;;9.60;99.90;;;;;;5007698;28;20057;-66
2021/12/15 06:06:47;;;;;;;2.65;0.30;;;9.60;99.90;;;;;;4996608;28;20503;-66
2021/12/15 06:09:14;;;;;;;3.55;0.35;;;9.60;99.90;;;;;;4998094;28;20654;-66
2021/12/15 06:11:41;;;;;;;0.55;0.45;;;9.60;99.90;;;;;;4996184;28;20057;-66
2021/12/15 06:14:08;;;;;;;0.10;0.10;;;9.90;99.90;;;;;;4995643;28;20125;-67
2021/12/15 06:16:35;;;;;;;0.80;0.55;;;9.60;99.90;;;;;;4999404;28;20076;-67
2021/12/15 06:19:02;;;;;;;0.90;0.73;;;9.50;99.90;;;;;;5001614;28;20408;-66
2021/12/15 06:21:28;;;;;;;1.65;0.45;;;9.60;99.90;;;;;;5000976;28;20672;-66
2021/12/15 06:23:54;;;;;;;0.43;0.20;;;9.60;99.90;;;;;;5000328;28;20038;-66
2021/12/15 06:26:20;;;;;;;0.30;0.30;;;10.10;99.90;;;;;;5000626;28;20805;-66
2021/12/15 06:28:47;;;;;;;0.65;0.65;;;9.60;99.90;;;;;;4999799;28;20041;-66
2021/12/15 06:31:15;;;;;;;0.10;0.10;;;10.20;99.90;;;;;;4999718;28;20054;-66
2021/12/15 06:33:42;;;;;;;0.38;0.10;;;9.60;99.90;;;;;;4999937;28;20125;-67
2021/12/15 06:36:09;;;;;;;0.13;0.13;;;9.60;99.90;;;;;;4999375;28;20050;-66
2021/12/15 06:38:41;;;;;;;0.00;0.00;;;10.00;99.90;;;;;;5001441;28;20136;-67
2021/12/15 06:41:08;;;;;;;0.10;0.10;;;9.50;99.90;;;;;;4999724;28;20483;-67
2021/12/15 06:43:35;;;;;;;0.32;0.20;;;9.70;99.90;;;;;;5000014;28;20050;-66
2021/12/15 06:59:37;;;;;;;0.68;0.68;;;10.20;99.90;;;;;;4999101;28;20061;-67
2021/12/15 07:02:03;;;;;;;0.77;0.65;;;9.90;99.90;;;;;;4999558;28;20057;-70
2021/12/15 07:04:29;;;;;;;1.17;0.85;;;9.50;99.90;;;;;;5007518;28;20111;-69
2021/12/15 07:06:56;;;;;;;0.10;0.10;;;9.50;99.90;;;;;;5019686;28;20057;-66
2021/12/15 07:09:22;;;;;;;0.10;0.10;;;9.50;99.90;;;;;;5020382;28;20114;-69
2021/12/15 07:11:50;;;;;;;2.63;2.10;;;9.50;99.90;;;;;;5019800;28;20678;-69
2021/12/15 07:14:17;;;;;;;0.20;0.20;;;9.50;99.90;;;;;;5019701;28;20062;-66
2021/12/15 07:16:47;;;;;;;0.75;0.25;;;9.60;99.90;;;;;;5017982;28;20053;-67
2021/12/15 07:19:20;;;;;;;0.00;0.00;;;9.60;99.90;;;;;;5018723;28;20119;-66
2021/12/15 07:24:38;;;;;;;0.25;0.17;;;9.60;99.90;;;;;;5018434;28;20091;-67
2021/12/15 07:27:05;;;;;;;0.73;0.73;;;9.60;99.90;;;;;;5018395;28;20069;-66
2021/12/15 07:29:31;;;;;;;0.75;0.70;;;9.50;99.90;;;;;;5020055;28;20441;-64
2021/12/15 07:32:00;;;;;;;1.30;0.25;;;9.60;99.90;;;;;;5019110;28;20041;-66
2021/12/15 07:34:25;;;;;;;2.10;0.63;;;9.60;99.90;;;;;;5018623;28;20499;-67
2021/12/15 07:36:51;;;;;;;0.70;0.70;;;9.60;99.90;;;;;;5017587;28;20062;-67
2021/12/15 07:39:17;;;;;;;0.30;0.25;;;9.60;99.90;;;;;;5020017;28;20099;-66
2021/12/15 07:42:03;;;;;;;1.70;1.60;;;10.10;99.90;;;;;;5017263;28;20132;-68
2021/12/15 07:44:29;;;;;;;0.10;0.10;;;9.60;99.90;;;;;;4998508;28;20046;-67
2021/12/15 07:46:55;;;;;;;0.00;0.00;;;9.60;99.90;;;;;;4999080;28;20053;-67
2021/12/15 07:49:22;;;;;;;0.65;0.43;;;9.70;99.90;;;;;;5000078;28;20050;-68
2021/12/15 07:51:52;;;;;;;0.50;0.50;;;10.10;99.90;;;;;;4999393;28;20140;-68
2021/12/15 07:54:19;;;;;;;0.63;0.28;;;9.50;99.90;;;;;;4998374;28;20133;-68
2021/12/15 07:56:45;;;;;;;1.02;0.98;;;9.60;99.90;;;;;;4999116;28;20516;-68
2021/12/15 07:59:11;;;;;;;0.00;0.00;;;9.50;99.90;;;;;;4999183;28;20046;-68
2021/12/15 08:01:37;;;;;;;0.43;0.28;;;9.50;99.90;;;;;;4996879;28;20675;-68
2021/12/15 08:04:03;;;;;;;0.80;0.65;;;9.50;99.90;;;;;;5009840;28;20048;-68
2021/12/15 08:06:29;;;;;;;0.20;0.20;;;9.50;99.90;;;;;;5000534;28;20030;-68
2021/12/15 08:08:56;;;;;;;0.90;0.47;;;9.60;99.90;;;;;;4998167;28;20046;-68
2021/12/15 08:11:22;;;;;;;0.00;0.00;;;9.50;99.90;;;;;;4997495;28;21085;-68
2021/12/15 08:13:49;;;;;;;1.45;0.63;;;9.50;99.90;;;;;;4998140;28;20052;-69
2021/12/15 08:16:19;;;;;;;0.00;0.00;;;9.50;99.90;;;;;;4996921;28;20046;-67
2021/12/15 08:18:45;;;;;;;0.35;0.35;;;9.50;99.90;;;;;;4997072;28;20041;-67
2021/12/15 08:21:11;;;;;;;0.00;0.00;;;9.60;99.90;;;;;;4999481;28;20050;-67
2021/12/15 08:23:36;;;;;;;0.00;0.00;;;9.50;99.90;;;;;;4999206;28;20044;-67
2021/12/15 08:26:03;;;;;;;0.20;0.20;;;9.50;99.90;;;;;;4998102;28;20058;-67
2021/12/15 08:28:29;;;;;;;0.35;0.30;;;9.60;99.90;;;;;;4999652;28;20722;-67
2021/12/15 08:30:55;;;;;;;0.35;0.35;;;9.60;99.90;;;;;;5002619;28;20038;-69
2021/12/15 08:33:23;;;;;;;0.00;0.00;;;9.60;99.90;;;;;;4998570;28;20042;-67
2021/12/15 08:35:53;;;;;;;0.00;0.00;;;9.60;99.90;;;;;;4998787;28;20488;-68
2021/12/15 08:38:20;;;;;;;0.10;0.10;;;9.60;99.90;;;;;;4998250;28;20046;-67
2021/12/15 08:40:47;;;;;;;0.10;0.10;;;9.80;99.90;;;;;;4981088;28;20085;-68
2021/12/15 08:43:14;;;;;;;0.00;0.00;;;9.70;99.90;;;;;;4997834;28;20046;-67
2021/12/15 08:45:43;;;;;;;0.00;0.00;;;9.60;99.90;;;;;;4997375;28;20443;-68
2021/12/15 08:48:10;;;;;;;0.10;0.10;;;9.60;99.90;;;;;;4996563;28;20050;-68
2021/12/15 08:50:39;;;;;;;0.13;0.13;;;10.00;99.90;;;;;;4997575;28;20065;-68
2021/12/15 08:53:09;;;;;;;0.52;0.40;;;9.70;99.90;;;;;;4997075;28;20085;-68
2021/12/15 08:55:35;;;;;;;0.10;0.10;;;9.70;99.90;;;;;;4997455;28;20050;-68
2021/12/15 08:58:05;;;;;;;0.00;0.00;;;9.70;99.90;;;;;;4997575;28;20050;-68
2021/12/15 09:00:31;;;;;;;0.35;0.35;;;9.70;99.90;;;;;;4998037;28;20824;-67
2021/12/15 09:02:57;;;;;;;0.05;0.05;;;9.90;99.90;;;;;;4997298;28;20417;-68
2021/12/15 09:05:27;;;;;;;0.00;0.00;;;10.20;99.90;;;;;;5007100;28;20081;-67
2021/12/15 09:07:57;;;;;;;0.00;0.00;;;9.70;99.90;;;;;;4998514;28;20243;-68
2021/12/15 09:10:25;;;;;;;0.00;0.00;;;10.30;99.90;;;;;;4996045;28;20046;-68
2021/12/15 09:12:51;;;;;;;0.00;0.00;;;9.80;99.90;;;;;;4998242;28;20079;-60
2021/12/15 09:15:17;;;;;;;0.03;0.03;;;9.80;99.90;;;;;;4998581;28;20049;-68
2021/12/15 09:17:44;;;;;;;0.30;0.30;;;9.80;99.90;;;;;;4996958;28;20077;-68
2021/12/15 09:20:14;;;;;;;0.03;0.03;;;9.80;99.90;;;;;;4997418;28;20520;-68
2021/12/15 09:22:40;;;;;;;0.10;0.10;;;10.20;99.90;;;;;;4997658;28;20414;-68
2021/12/15 09:25:09;;;;;;;0.15;0.15;;;10.30;99.90;;;;;;4996974;28;20116;-68
2021/12/15 09:27:37;;;;;;;0.55;0.28;;;9.80;99.90;;;;;;4997477;28;20103;-68
2021/12/15 09:30:08;;;;;;;0.00;0.00;;;9.80;99.90;;;;;;4997143;28;20056;-68
2021/12/15 09:32:34;;;;;;;1.20;0.20;;;9.80;99.90;;;;;;4997564;28;20450;-68
2021/12/15 09:35:00;;;;;;;0.10;0.10;;;10.00;99.90;;;;;;4996952;28;20125;-62
2021/12/15 09:37:28;;;;;;;0.00;0.00;;;10.10;99.90;;;;;;4998223;28;20062;-61
2021/12/15 09:39:55;;;;;;;0.10;0.10;;;10.00;99.90;;;;;;4998064;28;20046;-61
2021/12/15 09:42:23;;;;;;;0.03;0.03;;;10.10;99.90;;;;;;4998475;28;20052;-62
2021/12/15 09:44:52;;;;;;;0.10;0.10;;;10.20;99.90;;;;;;4997183;28;20057;-62
2021/12/15 09:47:36;;;;;;;0.10;0.10;;;10.20;99.90;;;;;;4995765;28;20042;-62
2021/12/15 10:04:25;;;;;;;0.00;0.00;;;11.10;99.90;;;;;;5007355;28;20084;-68
2021/12/15 10:17:21;;;;;;;1.20;0.52;;;10.50;99.90;;;;;;4999873;28;20768;-68
2021/12/15 10:18:11;;;;;;;0.03;0.03;;;10.50;99.90;;;;;;4998743;28;20060;-68
2021/12/15 10:20:38;;;;;;;0.50;0.22;;;10.30;99.90;;;;;;5000237;28;20073;-68
2021/12/15 10:23:14;;;;;;;0.10;0.10;;;10.30;99.90;;;;;;5001413;28;20042;-69
2021/12/15 10:25:47;;;;;;;0.35;0.30;;;10.50;99.90;;;;;;4999403;28;20049;-68
2021/12/15 10:28:23;;;;;;;0.10;0.10;;;10.70;99.90;;;;;;4983587;28;20133;-68
2021/12/15 10:30:56;;;;;;;0.15;0.13;;;10.30;99.90;;;;;;5000634;28;20073;-68
2021/12/15 10:33:29;;;;;;;0.20;0.20;;;10.10;99.90;;;;;;5001446;28;20057;-68
2021/12/15 10:36:07;;;;;;;0.00;0.00;;;10.10;99.90;;;;;;5001420;28;20048;-68
2021/12/15 10:38:54;;;;;;;0.95;0.75;;;10.10;99.90;;;;;;4999383;28;20061;-68
2021/12/15 10:41:27;;;;;;;0.00;0.00;;;10.10;99.90;;;;;;4999715;28;20048;-68
2021/12/15 10:44:04;;;;;;;0.20;0.13;;;10.00;99.90;;;;;;5000345;28;20452;-68
2021/12/15 10:46:52;;;;;;;0.93;0.68;;;10.10;99.90;;;;;;4999646;28;20422;-68
2021/12/15 10:49:24;;;;;;;0.00;0.00;;;10.10;99.90;;;;;;4981791;28;20096;-68
2021/12/15 10:52:08;;;;;;;0.63;0.63;;;10.10;99.90;;;;;;4999063;28;20133;-68
2021/12/15 10:54:36;;;;;;;0.20;0.10;;;10.20;99.90;;;;;;4999252;28;20718;-68
2021/12/15 10:57:13;;;;;;;0.50;0.50;;;10.10;99.90;;;;;;5001196;28;20054;-68
2021/12/15 10:59:43;;;;;;;0.57;0.55;;;10.10;99.90;;;;;;4999872;28;20034;-68
2021/12/15 11:02:28;;;;;;;0.30;0.30;;;10.20;99.90;;;;;;4997211;28;20195;-68
2021/12/15 11:04:56;;;;;;;0.10;0.10;;;10.10;99.90;;;;;;5011087;28;20042;-68
2021/12/15 11:07:22;;;;;;;0.08;0.08;;;10.70;99.90;;;;;;5018641;28;20092;-68
2021/12/15 11:09:55;;;;;;;0.47;0.25;;;10.40;99.90;;;;;;5019971;28;20500;-68
2021/12/15 11:12:23;;;;;;;0.15;0.15;;;10.20;99.90;;;;;;5020087;28;20782;-67
2021/12/15 11:14:53;;;;;;;0.20;0.20;;;10.20;99.90;;;;;;5018967;28;20092;-68
2021/12/15 11:17:27;;;;;;;0.00;0.00;;;10.70;99.90;;;;;;5019504;28;20110;-67
2021/12/15 11:19:54;;;;;;;0.00;0.00;;;10.60;99.90;;;;;;5018752;28;20587;-68
2021/12/15 11:22:35;;;;;;;0.00;0.00;;;10.20;99.90;;;;;;5019897;28;20145;-68
2021/12/15 11:25:03;;;;;;;0.10;0.10;;;10.40;99.90;;;;;;5020476;28;20456;-67
2021/12/15 11:27:29;;;;;;;0.10;0.10;;;10.30;99.90;;;;;;5019002;28;20041;-68
2021/12/15 11:29:55;;;;;;;0.20;0.20;;;10.30;99.90;;;;;;5018939;28;20049;-67
2021/12/15 11:32:50;;;;;;;0.10;0.10;;;10.50;99.90;;;;;;5019058;28;20045;-68
2021/12/15 11:35:25;;;;;;;0.00;0.00;;;10.20;99.90;;;;;;5017818;28;20060;-68
2021/12/15 11:37:53;;;;;;;0.98;0.57;;;10.30;99.90;;;;;;5018207;28;20049;-67
2021/12/15 11:40:37;;;;;;;0.30;0.30;;;10.20;99.90;;;;;;5018176;28;20087;-68
2021/12/15 11:43:05;;;;;;;0.38;0.08;;;10.30;99.90;;;;;;5017816;28;20148;-68
2021/12/15 11:45:31;;;;;;;0.43;0.22;;;10.20;99.90;;;;;;5017779;28;20049;-68
2021/12/15 11:48:23;;;;;;;0.00;0.00;;;10.30;99.90;;;;;;5017782;28;20055;-68
2021/12/15 11:50:51;;;;;;;0.00;0.00;;;10.30;99.90;;;;;;5017905;28;20075;-68
2021/12/15 11:53:43;;;;;;;0.08;0.08;;;10.50;99.90;;;;;;5019732;28;20067;-67
2021/12/15 11:56:10;;;;;;;0.10;0.10;;;10.60;99.90;;;;;;5019541;28;20400;-68
2021/12/15 11:58:36;;;;;;;0.00;0.00;;;10.30;99.90;;;;;;5017906;28;20482;-68
2021/12/15 12:01:02;;;;;;;0.00;0.00;;;10.60;99.90;;;;;;5018012;28;20099;-68
2021/12/15 12:03:28;;;;;;;0.60;0.60;;;10.70;99.90;;;;;;4997823;28;20412;-68
2021/12/15 12:05:54;;;;;;;0.00;0.00;;;10.40;99.90;;;;;;5013516;28;20111;-68
2021/12/15 12:08:19;;;;;;;0.00;0.00;;;10.50;99.90;;;;;;5018021;28;20048;-68
2021/12/15 12:10:51;;;;;;;0.00;0.00;;;10.40;99.90;;;;;;5017600;28;20676;-68
2021/12/15 12:13:28;;;;;;;0.03;0.03;;;10.50;99.90;;;;;;5018123;28;20053;-68
2021/12/15 12:16:00;;;;;;;0.00;0.00;;;10.70;99.90;;;;;;5017717;28;20050;-67
2021/12/15 12:18:29;;;;;;;0.00;0.00;;;10.60;99.90;;;;;;5017950;28;20140;-68
2021/12/15 12:20:59;;;;;;;0.00;0.00;;;10.50;99.90;;;;;;5018654;28;20045;-68
2021/12/15 12:23:28;;;;;;;0.00;0.00;;;10.40;99.90;;;;;;5019310;28;20443;-68
2021/12/15 12:25:57;;;;;;;0.10;0.10;;;10.50;99.90;;;;;;5017766;28;20045;-68
2021/12/15 12:28:27;;;;;;;0.17;0.15;;;10.50;99.90;;;;;;5018135;28;20045;-68
2021/12/15 12:30:57;;;;;;;0.10;0.10;;;10.60;99.90;;;;;;5016808;28;20064;-67
2021/12/15 12:33:25;;;;;;;0.25;0.10;;;10.60;99.90;;;;;;5016658;28;20824;-69
2021/12/15 12:36:04;;;;;;;4.40;0.60;;;10.50;99.90;;;;;;5017181;28;20535;-68
2021/12/15 12:38:33;;;;;;;0.00;0.00;;;10.50;99.90;;;;;;5019552;28;20104;-67
2021/12/15 12:40:58;;;;;;;0.00;0.00;;;10.50;99.90;;;;;;5018215;28;20546;-67
2021/12/15 12:43:29;;;;;;;0.28;0.20;;;10.50;99.90;;;;;;5017520;28;20049;-68
2021/12/15 12:46:28;;;;;;;0.00;0.00;;;10.60;99.90;;;;;;5017694;28;20049;-68
2021/12/15 13:00:26;;;;;;;0.10;0.10;;;10.40;99.90;;;;;;5015826;28;20045;-68
2021/12/15 13:03:17;;;;;;;1.60;0.47;;;10.40;99.90;;;;;;5011932;28;20479;-68
2021/12/15 13:05:48;;;;;;;0.00;0.00;;;10.30;99.90;;;;;;5011305;28;20292;-68
2021/12/15 13:08:29;;;;;;;0.03;0.03;;;10.30;99.90;;;;;;5016441;28;20041;-67
2021/12/15 13:11:01;;;;;;;0.00;0.00;;;10.20;99.90;;;;;;5017530;28;20061;-67
2021/12/15 13:13:31;;;;;;;0.30;0.30;;;10.20;99.90;;;;;;5018201;28;20408;-68
2021/12/15 13:15:59;;;;;;;0.00;0.00;;;10.20;99.90;;;;;;5015689;28;20065;-68
2021/12/15 13:18:26;;;;;;;0.00;0.00;;;10.20;99.90;;;;;;5015585;28;20053;-68
2021/12/15 13:21:00;;;;;;;0.00;0.00;;;10.10;99.90;;;;;;5016585;28;20056;-68
2021/12/15 13:23:43;;;;;;;0.00;0.00;;;10.00;99.90;;;;;;5016425;28;20185;-68
2021/12/15 13:29:20;;;;;;;0.03;0.03;;;10.20;99.90;;;;;;5018127;28;20049;-65
2021/12/15 13:32:00;;;;;;;0.00;0.00;;;10.00;99.90;;;;;;5015966;28;20053;-66
2021/12/15 13:34:42;;;;;;;0.00;0.00;;;10.00;99.90;;;;;;5015407;28;20053;-68
2021/12/15 13:37:08;;;;;;;0.00;0.00;;;10.00;99.90;;;;;;5016296;28;20092;-66
2021/12/15 13:39:52;;;;;;;0.00;0.00;;;10.00;99.90;;;;;;5017866;28;20046;-67
2021/12/15 13:42:51;;;;;;;2.90;0.32;;;9.90;99.90;;;;;;5017706;28;20044;-67
2021/12/15 13:45:32;;;;;;;2.45;0.70;;;9.90;99.90;;;;;;5016336;28;20056;-72
2021/12/15 13:47:58;;;;;;;0.00;0.00;;;9.80;99.90;;;;;;5016898;28;20060;-67
2021/12/15 13:50:29;;;;;;;0.00;0.00;;;9.90;99.90;;;;;;5018536;28;20092;-67
2021/12/15 13:53:03;;;;;;;0.10;0.05;;;9.80;99.90;;;;;;5017611;28;20057;-67
2021/12/15 13:55:37;;;;;;;0.00;0.00;;;9.80;99.90;;;;;;5016941;28;20052;-67
2021/12/15 13:58:11;;;;;;;;;;;9.70;99.90;;;;;;5017235;28;20404;-74
2021/12/15 14:00:54;;;;;;;0.75;0.75;;;9.80;99.90;;;;;;5015733;28;19917;-69
2021/12/15 14:03:43;;;;;;;0.08;0.08;;;9.50;99.90;;;;;;5004243;28;20139;-68
2021/12/15 14:06:15;;;;;;;0.00;0.00;;;9.50;99.90;;;;;;5009675;28;20073;-67
2021/12/15 14:08:47;;;;;;;0.00;0.00;;;9.40;99.90;;;;;;5003034;28;20145;-68
2021/12/15 14:11:21;;;;;;;0.00;0.00;;;9.50;99.90;;;;;;5001841;28;20061;-67
2021/12/15 14:13:55;;;;;;;0.00;0.00;;;9.40;99.90;;;;;;5002336;28;20141;-72
2021/12/15 14:16:41;;;;;;;0.65;0.65;;;9.40;99.90;;;;;;5001258;28;20037;-65
2021/12/15 14:19:17;;;;;;;0.00;0.00;;;9.60;99.90;;;;;;5002779;28;20137;-68
2021/12/15 14:21:47;;;;;;;0.00;0.00;;;9.40;99.90;;;;;;5001260;28;20077;-76
2021/12/15 14:24:15;;;;;;;0.25;0.10;;;9.40;99.90;;;;;;5002681;28;20045;-70
2021/12/15 14:26:41;;;;;;;0.00;0.00;;;9.30;99.90;;;;;;5001251;28;20116;-74
2021/12/15 14:29:28;;;;;;;0.00;0.00;;;9.30;99.90;;;;;;5002308;28;20048;-70